Flight Track Log - Related Links

Times and Time Zones

All times are in EDT time to prevent confusion due to time zone crossing. See the USC105 flight status page for this flight to view local times or setup timezone preferences in your user account.

Time Position Orientation Groundspeed Altitude Reporting Facility
EDT Latitude Longitude Course Direction KTS MPH feet Rate Location/Type
Tue 05:55:38 AM 41.8667 -88.2500 83° East 119 137 2,000  Level Chicago TRACON
Tue 05:56:38 AM 41.8333 -88.2500 180° South 121 139 3,200 1,041 Climbing Chicago TRACON
Tue 05:57:16 AM 41.8139 -88.2406 160° South 119 137 3,700 918 Climbing Chicago Center
Tue 05:58:16 AM 41.7831 -88.2164 150° Southeast 136 157 4,700 942 Climbing Chicago Center
Tue 05:59:17 AM 41.7611 -88.1650 120° Southeast 166 191 5,600 645 Climbing Chicago Center
Tue 06:00:17 AM 41.7617 -88.0950 89° East 186 214 6,000 198 Climbing Chicago Center
Tue 06:01:00 AM 41.9462 -87.8104 83° East  Level Estimated
Tue 06:01:18 AM 41.7642 -87.9989 88° East 214 246 6,000  Level Chicago Center
Tue 06:02:18 AM 41.7678 -87.9169 87° East 220 253 6,000 50 Level Chicago Center
Tue 06:03:19 AM 41.7744 -87.8347 84° East 221 254 6,100 645 Climbing Chicago Center
Tue 06:04:19 AM 41.7806 -87.7669 83° East 188 216 7,300 1,041 Climbing Chicago Center
Tue 06:05:20 AM 41.7906 -87.7025 78° East 179 206 8,200 787 Climbing Chicago Center
Tue 06:06:21 AM 41.7978 -87.6350 82° East 183 211 8,900 397 Climbing Chicago Center
Tue 06:07:21 AM 41.8047 -87.5508 84° East 223 257 9,000  Climbing Chicago Center
Tue 06:08:21 AM 41.8094 -87.4650 86° East 232 267 8,900 -50 Descending Chicago Center
Tue 06:09:22 AM 41.8153 -87.3811 85° East 230 265 8,900  Level Chicago Center
Tue 06:10:22 AM 41.8211 -87.2942 85° East 232 267 8,900 50 Level Chicago Center
Tue 06:11:23 AM 41.8297 -87.2111 82° East 229 264 9,000  Climbing Chicago Center
Tue 06:12:23 AM 41.8361 -87.1258 84° East 230 265 8,900  Descending Chicago Center
Tue 06:13:24 AM 41.8425 -87.0417 84° East 229 264 9,000  Climbing Chicago Center
Tue 06:14:24 AM 41.8514 -86.9586 82° East 227 261 8,900 -50 Descending Chicago Center
Tue 06:15:25 AM 41.8625 -86.8753 80° East 228 262 8,900 49 Level Chicago Center
Tue 06:16:26 AM 41.8717 -86.7900 82° East 230 265 9,000 50 Climbing Chicago Center
Tue 06:17:26 AM 41.8847 -86.7058 78° East 231 266 9,000  Level Chicago Center
Tue 06:18:27 AM 41.8947 -86.6167 81° East 233 268 9,000  Level Chicago Center
Tue 06:19:27 AM 41.9044 -86.5333 81° East 228 262 9,000 -50 Level Chicago Center
Tue 06:20:28 AM 41.9144 -86.4481 81° East 229 264 8,900  Descending Chicago Center
Tue 06:21:28 AM 41.9300 -86.3633 76° East 233 268 9,000 50 Climbing Chicago Center
Tue 06:22:29 AM 41.9597 -86.2811 64° Northeast 242 278 9,000 -49 Level Chicago Center
Tue 06:23:30 AM 41.9875 -86.2014 65° Northeast 238 274 8,900  Descending Chicago Center
Tue 06:24:30 AM 42.0186 -86.1236 62° Northeast 236 272 9,000 50 Climbing Chicago Center
Tue 06:25:31 AM 42.0483 -86.0447 63° Northeast 236 272 9,000  Level Chicago Center
Tue 06:26:31 AM 42.0792 -85.9633 63° Northeast 242 278 9,000 50 Level Chicago Center
Tue 06:27:32 AM 42.1103 -85.8831 62° Northeast 242 278 9,100  Climbing Chicago Center
Tue 06:28:32 AM 42.1456 -85.7886 63° Northeast 237 273 9,000  Descending Chicago Center
Tue 06:29:33 AM 42.1767 -85.7094 62° Northeast 238 274 9,100 49 Climbing Chicago Center
Tue 06:30:34 AM 42.2058 -85.6311 63° Northeast 235 270 9,100  Level Chicago Center
Tue 06:31:34 AM 42.2347 -85.5492 65° Northeast 238 274 9,100  Level Chicago Center
Tue 06:32:35 AM 42.2586 -85.4664 69° East 238 274 9,100  Level Chicago Center
Tue 06:33:35 AM 42.2825 -85.3939 66° East 238 274 9,100 -50 Level Chicago Center
Tue 06:34:36 AM 42.2844 -85.3047 88° East 241 277 9,000 -50 Descending Chicago Center
Tue 06:35:36 AM 42.2814 -85.2147 93° East 243 280 9,000 50 Level Chicago Center
Tue 06:36:37 AM 42.2800 -85.1239 91° East 242 278 9,100  Climbing Chicago Center
Tue 06:37:38 AM 42.2794 -85.0203 90° East 233 268 9,000 -50 Descending Chicago Center
Tue 06:38:38 AM 42.2772 -84.9453 92° East 210 242 9,000 50 Level Chicago Center
Tue 06:39:39 AM 42.2747 -84.8694 93° East 203 234 9,100  Climbing Chicago Center
Tue 06:40:39 AM 42.2733 -84.7911 91° East 207 238 9,000  Descending Chicago Center
Tue 06:41:40 AM 42.2719 -84.7119 91° East 210 242 9,100 49 Climbing Chicago Center
Tue 06:42:41 AM 42.2711 -84.6311 91° East 214 246 9,100 -50 Level Chicago Center
Tue 06:43:41 AM 42.2658 -84.5497 95° East 218 251 9,000  Descending Chicago Center
Tue 06:44:42 AM 42.2653 -84.4753 91° East 205 236 9,100  Climbing Chicago Center
Tue 06:45:43 AM 42.2642 -84.3964 91° East 208 239 9,000 -65 Descending Chicago Center
Tue 06:46:15 AM 42.2628 -84.3514 92° East 213 245 9,000  Level Cleveland Center
Tue 06:46:58 AM 42.2606 -84.2925 93° East 213 245 9,000 -433 Level Cleveland Center
Tue 06:47:52 AM 42.2567 -84.2192 94° East 221 254 8,300 -939 Descending Cleveland Center
Tue 06:48:53 AM 42.2553 -84.1294 91° East 236 272 7,200 -1,031 Descending Cleveland Center
Tue 06:50:00 AM 42.2519 -84.0339 93° East 237 273 6,100 -1,039 Descending Cleveland Center
Tue 06:51:00 AM 42.2506 -83.9411 91° East 234 269 5,000 -992 Descending Cleveland Center
Tue 06:52:07 AM 42.2431 -83.8425 96° East 239 275 4,000 -761 Descending Cleveland Center
Tue 06:53:14 AM 42.2394 -83.7442 93° East 228 262 3,300 -694 Descending Cleveland Center
Tue 06:54:08 AM 42.2289 -83.6764 102° East 217 250 2,600 -783 Descending Cleveland Center
Tue 06:55:09 AM 42.2142 -83.5972 104° East 210 242 1,800 -787 Descending Cleveland Center
Tue 06:57:00 AM 42.2393 -83.5310 90° East  Level Estimated
Tue 07:04:00 AM 42.2393 -83.5310 90° East  Level Estimated
Tue 07:05:00 AM 42.2393 -83.5310 90° East  Level Estimated

Login

Don't have an account? Register now (free) for customized features, flight alerts, and more!